Time;durP1;ratioP1;P1;durP2;ratioP2;P2;SDS_P1;SDS_P2;PMS_P1;PMS_P2;Temp;Humidity;BMP_temperature;BMP_pressure;BME280_temperature;BME280_humidity;BME280_pressure;Samples;Min_cycle;Max_cycle;Signal;HPM_P1;HPM_P2
2022/11/15 00:02:13;;;;;;;1.50;1.40;;;8.50;99.90;;;;;;5104182;28;20652;-80
2022/11/15 00:04:41;;;;;;;1.87;1.77;;;8.50;99.90;;;;;;5087374;28;20707;-80
2022/11/15 00:07:08;;;;;;;2.20;1.70;;;8.40;99.90;;;;;;5105301;28;20733;-80
2022/11/15 00:09:35;;;;;;;1.50;1.30;;;8.40;99.90;;;;;;5105477;28;20634;-80
2022/11/15 00:12:02;;;;;;;2.13;1.23;;;8.40;99.90;;;;;;5099324;28;20968;-81
2022/11/15 00:14:29;;;;;;;1.23;1.13;;;8.40;99.90;;;;;;5088059;28;20615;-80
2022/11/15 00:16:55;;;;;;;1.80;1.70;;;8.40;99.90;;;;;;5102806;28;20667;-80
2022/11/15 00:19:22;;;;;;;5.90;1.57;;;8.40;99.90;;;;;;5090742;28;20692;-81
2022/11/15 00:21:50;;;;;;;1.90;1.70;;;8.20;99.90;;;;;;5105592;28;20616;-80
2022/11/15 00:24:17;;;;;;;1.57;1.47;;;8.30;99.90;;;;;;5090170;28;20672;-80
2022/11/15 00:26:44;;;;;;;2.00;1.77;;;8.30;99.90;;;;;;5090454;28;20712;-81
2022/11/15 00:29:11;;;;;;;2.20;1.80;;;8.30;99.90;;;;;;5097056;28;20623;-80
2022/11/15 00:31:38;;;;;;;2.60;1.83;;;8.30;99.90;;;;;;5089747;28;20677;-80
2022/11/15 00:34:04;;;;;;;1.87;1.77;;;8.20;99.90;;;;;;5105826;28;20715;-80
2022/11/15 00:36:34;;;;;;;2.30;1.73;;;8.30;99.90;;;;;;5104110;28;20625;-81
2022/11/15 00:39:04;;;;;;;2.43;1.63;;;8.20;99.90;;;;;;5097700;28;20626;-80
2022/11/15 00:41:31;;;;;;;1.50;1.40;;;8.20;99.90;;;;;;5105344;28;21183;-83
2022/11/15 00:43:58;;;;;;;2.30;1.97;;;8.20;99.90;;;;;;5089357;28;20670;-80
2022/11/15 00:46:24;;;;;;;2.17;1.60;;;8.20;99.90;;;;;;5086412;28;20616;-82
2022/11/15 00:48:51;;;;;;;1.77;1.37;;;8.20;99.90;;;;;;5107259;28;20623;-80
2022/11/15 00:51:18;;;;;;;1.90;1.80;;;8.10;99.90;;;;;;5103046;28;20627;-80
2022/11/15 00:53:45;;;;;;;1.63;1.53;;;8.10;99.90;;;;;;5104785;28;20620;-81
2022/11/15 00:56:13;;;;;;;2.07;1.80;;;8.10;99.90;;;;;;5094778;28;20631;-80
2022/11/15 00:58:40;;;;;;;1.27;1.13;;;8.20;99.90;;;;;;5087975;28;20783;-80
2022/11/15 01:01:08;;;;;;;1.87;1.70;;;8.20;99.90;;;;;;5106880;28;21197;-80
2022/11/15 01:03:36;;;;;;;2.60;1.77;;;8.20;99.90;;;;;;5109680;28;20717;-81
2022/11/15 01:06:03;;;;;;;2.20;2.10;;;8.20;99.90;;;;;;5102465;28;20624;-80
2022/11/15 01:08:30;;;;;;;3.00;1.80;;;8.10;99.90;;;;;;5090237;28;20635;-80
2022/11/15 01:11:01;;;;;;;1.03;1.03;;;8.10;99.90;;;;;;5102168;28;20631;-80
2022/11/15 01:13:32;;;;;;;1.50;1.40;;;8.10;99.90;;;;;;5111394;28;20630;-80
2022/11/15 01:15:59;;;;;;;6.80;2.17;;;8.10;99.90;;;;;;5098746;28;20643;-80
2022/11/15 01:18:26;;;;;;;1.40;1.30;;;8.10;99.90;;;;;;5103208;28;20626;-80
2022/11/15 01:20:53;;;;;;;1.13;1.00;;;8.00;99.90;;;;;;5108745;28;20978;-80
2022/11/15 01:23:20;;;;;;;1.20;1.10;;;8.10;99.90;;;;;;5110801;28;20657;-79
2022/11/15 01:25:46;;;;;;;1.07;0.83;;;8.00;99.90;;;;;;5102778;28;20632;-80
2022/11/15 01:28:13;;;;;;;1.10;0.97;;;8.00;99.90;;;;;;5101569;28;20939;-80
2022/11/15 01:30:41;;;;;;;0.80;0.80;;;8.00;99.90;;;;;;5108067;28;20623;-80
2022/11/15 01:33:08;;;;;;;2.83;1.60;;;7.90;99.90;;;;;;5100150;28;21329;-80
2022/11/15 01:35:39;;;;;;;2.00;1.03;;;7.90;99.90;;;;;;5109467;28;20626;-80
2022/11/15 01:38:06;;;;;;;2.10;1.90;;;7.80;99.90;;;;;;5110185;28;21204;-80
2022/11/15 01:40:33;;;;;;;1.40;1.33;;;7.80;99.90;;;;;;5108726;28;20628;-80
2022/11/15 01:43:00;;;;;;;1.20;1.20;;;7.80;99.90;;;;;;5101928;28;20775;-81
2022/11/15 01:45:27;;;;;;;1.57;0.97;;;7.70;99.90;;;;;;5093862;28;21205;-80
2022/11/15 01:47:56;;;;;;;1.33;1.23;;;7.70;99.90;;;;;;5108773;28;20748;-80
2022/11/15 01:50:27;;;;;;;1.90;1.10;;;7.80;99.90;;;;;;5090524;28;20631;-80
2022/11/15 01:52:54;;;;;;;1.10;1.10;;;7.80;99.90;;;;;;5099328;28;21093;-80
2022/11/15 01:55:25;;;;;;;1.10;1.10;;;7.70;99.90;;;;;;5102709;28;20743;-79
2022/11/15 01:57:55;;;;;;;2.23;1.77;;;7.70;99.90;;;;;;5093727;28;20620;-80
2022/11/15 02:00:22;;;;;;;1.33;1.20;;;7.70;99.90;;;;;;5098704;28;20612;-80
2022/11/15 02:02:49;;;;;;;2.03;1.63;;;7.60;99.90;;;;;;5100414;28;20663;-80
2022/11/15 02:05:17;;;;;;;11.80;0.90;;;7.60;99.90;;;;;;5098994;28;20631;-80
2022/11/15 02:07:45;;;;;;;1.00;0.90;;;7.70;99.90;;;;;;5090269;28;20673;-80
2022/11/15 02:10:18;;;;;;;1.03;0.90;;;7.80;99.90;;;;;;5096019;28;21087;-80
2022/11/15 02:12:46;;;;;;;1.20;1.10;;;7.70;99.90;;;;;;5100198;28;20680;-80
2022/11/15 02:15:13;;;;;;;1.17;1.07;;;7.60;99.90;;;;;;5109780;28;20618;-80
2022/11/15 02:17:57;;;;;;;2.50;1.07;;;7.60;99.90;;;;;;5109040;28;20620;-79
2022/11/15 02:20:55;;;;;;;1.67;0.93;;;7.50;99.90;;;;;;5098777;28;20617;-79
2022/11/15 02:23:49;;;;;;;2.83;2.33;;;7.40;99.90;;;;;;5096409;28;20651;-80
2022/11/15 02:26:42;;;;;;;1.23;1.13;;;7.40;99.90;;;;;;5099459;28;20636;-79
2022/11/15 02:29:11;;;;;;;0.73;0.73;;;7.40;99.90;;;;;;5101644;28;21219;-79
2022/11/15 02:31:46;;;;;;;1.13;1.03;;;7.40;99.90;;;;;;5099761;28;20628;-80
2022/11/15 02:34:26;;;;;;;2.10;1.17;;;7.40;99.90;;;;;;5095099;28;20635;-79
2022/11/15 02:37:04;;;;;;;1.47;1.37;;;7.40;99.90;;;;;;5096753;28;20965;-80
2022/11/15 02:39:38;;;;;;;1.20;1.10;;;7.40;99.90;;;;;;5103309;28;20634;-80
2022/11/15 02:43:56;;;;;;;1.93;1.13;;;7.40;99.90;;;;;;5110249;28;20622;-80
2022/11/15 02:44:58;;;;;;;0.97;0.97;;;7.40;99.90;;;;;;5092238;28;20684;-80
2022/11/15 02:47:31;;;;;;;1.93;1.57;;;7.40;99.90;;;;;;5099924;28;20623;-80
2022/11/15 02:50:00;;;;;;;2.33;1.70;;;7.50;99.90;;;;;;5109874;28;20619;-79
2022/11/15 02:52:27;;;;;;;1.13;1.03;;;7.50;99.90;;;;;;5089716;28;20631;-81
2022/11/15 02:54:56;;;;;;;1.10;0.97;;;7.40;99.90;;;;;;5103223;28;21042;-80
2022/11/15 02:57:32;;;;;;;1.23;0.97;;;7.60;99.90;;;;;;5091352;28;20629;-79
2022/11/15 03:00:10;;;;;;;0.93;0.70;;;7.50;99.90;;;;;;5095687;28;21055;-79
2022/11/15 03:02:57;;;;;;;1.63;1.40;;;7.50;99.90;;;;;;5105497;28;20921;-80
2022/11/15 03:05:31;;;;;;;1.40;1.13;;;7.40;99.90;;;;;;5107054;28;20616;-80
2022/11/15 03:08:06;;;;;;;1.13;1.13;;;7.50;99.90;;;;;;5107827;28;20624;-80
2022/11/15 03:10:42;;;;;;;1.23;0.83;;;7.50;99.90;;;;;;5095972;28;20643;-80
2022/11/15 03:13:18;;;;;;;2.23;2.03;;;7.50;99.90;;;;;;5104801;28;20689;-80
2022/11/15 03:15:54;;;;;;;1.50;1.40;;;7.50;99.90;;;;;;5091792;28;21002;-80
2022/11/15 03:18:30;;;;;;;0.73;0.73;;;7.50;99.90;;;;;;5102485;28;20631;-80
2022/11/15 03:21:00;;;;;;;0.83;0.70;;;7.50;99.90;;;;;;5104958;28;20626;-80
2022/11/15 03:23:30;;;;;;;1.90;1.00;;;7.40;99.90;;;;;;5101738;28;21065;-80
2022/11/15 03:26:00;;;;;;;1.60;1.13;;;7.40;99.90;;;;;;5089119;28;20627;-80
2022/11/15 03:28:33;;;;;;;1.43;1.20;;;7.30;99.90;;;;;;5106027;28;20624;-80
2022/11/15 03:31:46;;;;;;;1.37;1.27;;;7.30;99.90;;;;;;5106406;28;21105;-80
2022/11/15 03:33:53;;;;;;;2.17;1.00;;;7.30;99.90;;;;;;5104162;28;20722;-80
2022/11/15 03:36:22;;;;;;;1.43;1.10;;;7.30;99.90;;;;;;5098590;28;21169;-80
2022/11/15 03:38:50;;;;;;;1.63;1.30;;;7.30;99.90;;;;;;5097686;28;20626;-80
2022/11/15 03:41:22;;;;;;;1.27;1.20;;;7.30;99.90;;;;;;5098555;28;21032;-79
2022/11/15 03:43:56;;;;;;;1.27;1.17;;;7.30;99.90;;;;;;5107153;28;20705;-80
2022/11/15 03:46:28;;;;;;;1.13;1.13;;;7.30;99.90;;;;;;5098569;28;20651;-79
2022/11/15 03:49:02;;;;;;;0.67;0.67;;;7.40;99.90;;;;;;5099797;28;20623;-80
2022/11/15 03:51:30;;;;;;;0.87;0.87;;;7.30;99.90;;;;;;5097532;28;20834;-80
2022/11/15 03:53:57;;;;;;;1.27;1.27;;;7.30;99.90;;;;;;5100056;28;20978;-79
2022/11/15 03:56:24;;;;;;;2.00;1.33;;;7.30;99.90;;;;;;5098123;28;20677;-80
2022/11/15 03:58:52;;;;;;;1.37;1.10;;;7.30;99.90;;;;;;5090776;28;20723;-80
2022/11/15 04:01:19;;;;;;;1.33;0.97;;;7.30;99.90;;;;;;5099597;28;21059;-80
2022/11/15 04:03:46;;;;;;;1.60;1.50;;;7.30;99.90;;;;;;5088901;28;20656;-80
2022/11/15 04:06:14;;;;;;;1.10;1.00;;;7.30;99.90;;;;;;5089204;28;20695;-79
2022/11/15 04:08:41;;;;;;;0.80;0.63;;;7.30;99.90;;;;;;5090088;28;20635;-80
2022/11/15 04:11:08;;;;;;;1.63;1.20;;;7.30;99.90;;;;;;5101452;28;20743;-79
2022/11/15 04:13:36;;;;;;;1.03;1.03;;;7.30;99.90;;;;;;5097185;28;20639;-80
2022/11/15 04:16:03;;;;;;;1.87;1.53;;;7.30;99.90;;;;;;5106803;28;21169;-79
2022/11/15 04:18:30;;;;;;;1.23;1.13;;;7.30;99.90;;;;;;5102537;28;20633;-80
2022/11/15 04:26:27;;;;;;;0.87;0.87;;;7.30;99.90;;;;;;5077049;28;20636;-80
2022/11/15 04:31:39;;;;;;;1.93;1.77;;;7.20;99.90;;;;;;5093696;28;21307;-80
2022/11/15 04:34:06;;;;;;;1.63;0.83;;;7.30;99.90;;;;;;5089698;28;21210;-81
2022/11/15 04:39:18;;;;;;;1.67;1.30;;;7.20;99.90;;;;;;5100386;28;20620;-80
2022/11/15 04:41:45;;;;;;;1.93;1.83;;;7.20;99.90;;;;;;5091825;28;20697;-80
2022/11/15 04:44:12;;;;;;;1.60;1.50;;;7.20;99.90;;;;;;5102985;28;20667;-80
2022/11/15 04:46:39;;;;;;;1.80;1.40;;;7.20;99.90;;;;;;5104460;28;20636;-80
2022/11/15 04:49:06;;;;;;;1.50;1.30;;;7.20;99.90;;;;;;5103724;28;20981;-80
2022/11/15 04:51:33;;;;;;;1.47;1.30;;;7.20;99.90;;;;;;5093723;28;21174;-80
2022/11/15 04:53:59;;;;;;;0.87;0.83;;;7.30;99.90;;;;;;5104840;28;20720;-80
2022/11/15 04:56:27;;;;;;;1.00;1.00;;;7.10;99.90;;;;;;5099419;28;20627;-80
2022/11/15 04:58:54;;;;;;;2.10;1.43;;;7.00;99.90;;;;;;5101491;28;20632;-79
2022/11/15 05:01:21;;;;;;;1.27;1.13;;;7.10;99.90;;;;;;5092797;28;20632;-79
2022/11/15 05:06:32;;;;;;;1.80;1.70;;;7.10;99.90;;;;;;5106574;28;21156;-80
2022/11/15 05:08:59;;;;;;;1.13;1.13;;;7.20;99.90;;;;;;5099078;28;20634;-80
2022/11/15 05:11:27;;;;;;;1.03;0.97;;;7.20;99.90;;;;;;5091313;28;20675;-80
2022/11/15 05:13:55;;;;;;;1.13;1.00;;;7.20;99.90;;;;;;5097904;28;20635;-80
2022/11/15 05:16:21;;;;;;;1.40;1.30;;;7.20;99.90;;;;;;5092699;28;20855;-80
2022/11/15 05:18:51;;;;;;;1.77;1.27;;;7.20;99.90;;;;;;5111017;28;20631;-79
2022/11/15 05:21:19;;;;;;;3.90;1.13;;;7.10;99.90;;;;;;5109856;28;20600;-80
2022/11/15 05:23:45;;;;;;;1.67;1.57;;;7.20;99.90;;;;;;5097923;28;20725;-79
2022/11/15 05:26:13;;;;;;;1.37;0.90;;;7.10;99.90;;;;;;5090721;28;20650;-80
2022/11/15 05:28:41;;;;;;;1.90;1.53;;;7.10;99.90;;;;;;5098194;28;20702;-80
2022/11/15 05:31:10;;;;;;;0.90;0.90;;;7.00;99.90;;;;;;5097714;28;20678;-80
2022/11/15 05:33:39;;;;;;;1.87;1.77;;;7.00;99.90;;;;;;5106966;28;20624;-80
2022/11/15 05:36:12;;;;;;;1.57;1.47;;;7.10;99.90;;;;;;5110466;28;20626;-79
2022/11/15 05:38:39;;;;;;;1.90;1.80;;;7.00;99.90;;;;;;5100467;28;20621;-80
2022/11/15 05:41:06;;;;;;;0.93;0.80;;;7.10;99.90;;;;;;5101415;28;20719;-81
2022/11/15 05:43:38;;;;;;;2.30;1.87;;;7.00;99.90;;;;;;5102784;28;20639;-80
2022/11/15 05:46:07;;;;;;;0.73;0.60;;;7.00;99.90;;;;;;5099494;28;20662;-81
2022/11/15 05:48:36;;;;;;;1.80;1.63;;;7.10;99.90;;;;;;5098528;28;21190;-80
2022/11/15 05:51:05;;;;;;;3.30;1.87;;;7.10;99.90;;;;;;5100982;28;20632;-80
2022/11/15 05:53:32;;;;;;;1.33;0.80;;;7.00;99.90;;;;;;5104883;28;20611;-81
2022/11/15 05:55:59;;;;;;;1.83;1.53;;;7.10;99.90;;;;;;5097668;28;20629;-79
2022/11/15 05:58:26;;;;;;;4.47;1.13;;;7.00;99.90;;;;;;5102752;28;20639;-79
2022/11/15 06:00:53;;;;;;;3.20;1.93;;;7.10;99.90;;;;;;5107762;28;20616;-79
2022/11/15 06:03:21;;;;;;;1.87;1.77;;;6.90;99.90;;;;;;5108087;28;20624;-80
2022/11/15 06:05:47;;;;;;;3.00;1.40;;;7.10;99.90;;;;;;5090216;28;20660;-79
2022/11/15 06:08:14;;;;;;;3.57;2.03;;;7.10;99.90;;;;;;5103282;28;20614;-79
2022/11/15 06:10:41;;;;;;;1.50;1.40;;;7.10;99.90;;;;;;5103730;28;20611;-79
2022/11/15 06:13:08;;;;;;;1.77;1.67;;;7.10;99.90;;;;;;5103383;28;20715;-80
2022/11/15 06:15:35;;;;;;;1.07;1.00;;;7.20;99.90;;;;;;5096370;28;20628;-80
2022/11/15 06:18:01;;;;;;;1.60;1.27;;;7.20;99.90;;;;;;5108931;28;20715;-80
2022/11/15 06:20:30;;;;;;;1.50;0.97;;;7.20;99.90;;;;;;5103451;28;20728;-80
2022/11/15 06:22:59;;;;;;;3.87;2.77;;;7.20;99.90;;;;;;5098509;28;20719;-81
2022/11/15 06:25:26;;;;;;;2.00;1.80;;;7.20;99.90;;;;;;5093995;28;20810;-79
2022/11/15 06:27:53;;;;;;;1.33;1.00;;;7.20;99.90;;;;;;5108230;28;20922;-81
2022/11/15 06:30:20;;;;;;;1.40;1.27;;;7.20;99.90;;;;;;5109044;28;20634;-79
2022/11/15 06:32:47;;;;;;;7.50;2.10;;;7.20;99.90;;;;;;5110107;28;21192;-79
2022/11/15 06:35:13;;;;;;;5.20;1.80;;;7.20;99.90;;;;;;5094752;28;20638;-79
2022/11/15 06:37:42;;;;;;;3.70;2.23;;;7.20;99.90;;;;;;5093989;28;20651;-80
2022/11/15 06:40:10;;;;;;;1.30;1.13;;;7.20;99.90;;;;;;5106698;28;20723;-80
2022/11/15 06:42:37;;;;;;;2.10;1.43;;;7.10;99.90;;;;;;5108086;28;20619;-80
2022/11/15 06:45:05;;;;;;;2.47;2.27;;;7.20;99.90;;;;;;5091858;28;20678;-80
2022/11/15 06:47:32;;;;;;;1.87;1.27;;;7.30;99.90;;;;;;5102853;28;20684;-80
2022/11/15 06:49:58;;;;;;;1.43;1.23;;;7.30;99.90;;;;;;5107141;28;20618;-80
2022/11/15 06:52:25;;;;;;;1.40;1.30;;;7.30;99.90;;;;;;5108873;28;20710;-80
2022/11/15 06:54:53;;;;;;;2.20;2.00;;;7.30;99.90;;;;;;5099820;28;20642;-80
2022/11/15 06:57:20;;;;;;;2.60;1.90;;;7.30;99.90;;;;;;5093242;28;20950;-80
2022/11/15 06:59:47;;;;;;;2.87;1.47;;;7.40;99.90;;;;;;5091019;28;20736;-80
2022/11/15 07:02:14;;;;;;;1.50;1.40;;;7.40;99.90;;;;;;5095882;28;20735;-79
2022/11/15 07:04:41;;;;;;;2.70;1.50;;;7.50;99.90;;;;;;5103680;28;20666;-81
2022/11/15 07:07:08;;;;;;;1.97;1.87;;;7.40;99.90;;;;;;5088670;28;21222;-80
2022/11/15 07:09:34;;;;;;;1.53;1.43;;;7.40;99.90;;;;;;5090309;28;20612;-80
2022/11/15 07:12:03;;;;;;;6.50;1.80;;;7.50;99.90;;;;;;5101067;28;20625;-79
2022/11/15 07:14:29;;;;;;;5.40;1.50;;;7.40;99.90;;;;;;5101896;28;20739;-79
2022/11/15 07:16:56;;;;;;;2.00;1.70;;;7.40;99.90;;;;;;5100964;28;21274;-80
2022/11/15 07:19:23;;;;;;;3.10;1.87;;;7.40;99.90;;;;;;5108013;28;20630;-79
2022/11/15 07:21:50;;;;;;;3.30;1.70;;;7.40;99.90;;;;;;5093422;28;20651;-80
2022/11/15 07:24:17;;;;;;;1.53;1.40;;;7.40;99.90;;;;;;5096339;28;20647;-80
2022/11/15 07:26:44;;;;;;;1.97;1.87;;;7.40;99.90;;;;;;5095493;28;21064;-80
2022/11/15 07:29:12;;;;;;;5.43;2.13;;;7.50;99.90;;;;;;5104199;28;20634;-80
2022/11/15 07:31:39;;;;;;;2.10;2.00;;;7.50;99.90;;;;;;5090134;28;20724;-80
2022/11/15 07:34:05;;;;;;;2.10;1.87;;;7.50;99.90;;;;;;5090372;28;20616;-80
2022/11/15 07:36:32;;;;;;;3.57;2.13;;;7.60;99.90;;;;;;5087767;28;20674;-80
2022/11/15 07:38:59;;;;;;;1.20;1.10;;;7.60;99.90;;;;;;5104483;28;20636;-81
2022/11/15 07:41:26;;;;;;;1.53;1.43;;;7.70;99.90;;;;;;5098301;28;20634;-79
2022/11/15 07:43:53;;;;;;;1.57;1.47;;;7.80;99.90;;;;;;5096469;28;21035;-79
2022/11/15 07:46:21;;;;;;;2.30;1.80;;;8.00;99.90;;;;;;5107355;28;20671;-79
2022/11/15 07:48:48;;;;;;;0.77;0.77;;;8.10;99.90;;;;;;5106918;28;20727;-79
2022/11/15 07:51:16;;;;;;;2.53;2.33;;;8.20;99.90;;;;;;5096736;28;20627;-79
2022/11/15 07:53:43;;;;;;;1.47;1.37;;;8.30;99.90;;;;;;5103385;28;21027;-79
2022/11/15 07:56:10;;;;;;;1.33;1.23;;;8.30;99.90;;;;;;5108037;28;20638;-79
2022/11/15 07:58:37;;;;;;;2.57;2.00;;;8.40;99.90;;;;;;5095146;28;20694;-79
2022/11/15 08:01:04;;;;;;;1.53;1.43;;;8.50;99.90;;;;;;5095302;28;20628;-80
2022/11/15 08:03:33;;;;;;;2.83;2.20;;;8.70;99.90;;;;;;5101850;28;21306;-81
2022/11/15 08:06:02;;;;;;;1.57;1.47;;;8.70;99.90;;;;;;5102792;28;20666;-79
2022/11/15 08:08:29;;;;;;;1.47;1.20;;;8.80;99.90;;;;;;5106318;28;20723;-80
2022/11/15 08:10:58;;;;;;;2.53;2.33;;;8.80;99.90;;;;;;5098922;28;20666;-79
2022/11/15 08:13:25;;;;;;;3.23;2.03;;;8.80;99.90;;;;;;5088017;28;20620;-80
2022/11/15 08:15:52;;;;;;;3.37;3.07;;;8.80;99.90;;;;;;5103535;28;20652;-79
2022/11/15 08:18:19;;;;;;;1.20;1.10;;;8.90;99.90;;;;;;5106054;28;20715;-80
2022/11/15 08:20:47;;;;;;;2.00;1.70;;;8.90;99.90;;;;;;5101472;28;20706;-80
2022/11/15 08:23:14;;;;;;;1.50;1.40;;;8.90;99.90;;;;;;5094282;28;20754;-79
2022/11/15 08:25:41;;;;;;;1.73;1.57;;;8.90;99.90;;;;;;5107630;28;21352;-80
2022/11/15 08:28:10;;;;;;;4.30;2.57;;;9.00;99.90;;;;;;5092890;28;20734;-80
2022/11/15 08:30:41;;;;;;;1.57;1.47;;;9.00;99.90;;;;;;5092058;28;21519;-80
2022/11/15 08:33:11;;;;;;;2.93;2.63;;;9.20;99.90;;;;;;5096897;28;20660;-80
2022/11/15 08:35:38;;;;;;;3.00;1.67;;;9.30;99.90;;;;;;5102555;28;21052;-81
2022/11/15 08:38:07;;;;;;;2.10;1.90;;;9.30;99.90;;;;;;5105631;28;20718;-81
2022/11/15 08:40:33;;;;;;;1.57;1.47;;;9.40;99.90;;;;;;5091544;28;20704;-80
2022/11/15 08:43:02;;;;;;;2.33;2.03;;;9.40;99.90;;;;;;5088912;28;21028;-80
2022/11/15 08:45:29;;;;;;;3.80;1.93;;;9.60;99.90;;;;;;5102166;28;20678;-80
2022/11/15 08:47:56;;;;;;;2.33;2.07;;;9.60;99.90;;;;;;5088034;28;20715;-80
2022/11/15 08:50:23;;;;;;;1.20;1.20;;;9.70;99.90;;;;;;5089852;28;21046;-80
2022/11/15 08:52:50;;;;;;;3.03;1.70;;;9.80;99.90;;;;;;5102909;28;20727;-80
2022/11/15 08:55:19;;;;;;;1.30;1.20;;;9.90;99.90;;;;;;5101916;28;20719;-82
2022/11/15 08:57:46;;;;;;;2.60;1.77;;;10.00;99.90;;;;;;5087495;28;20723;-81
2022/11/15 09:00:14;;;;;;;2.13;2.03;;;10.20;99.90;;;;;;5096900;28;20719;-81
2022/11/15 09:02:41;;;;;;;3.77;1.63;;;10.40;99.90;;;;;;5088454;28;20720;-81
2022/11/15 09:05:09;;;;;;;2.63;2.43;;;10.50;99.90;;;;;;5099026;28;20797;-81
2022/11/15 09:07:36;;;;;;;4.17;1.93;;;10.60;99.90;;;;;;5107138;28;21057;-81
2022/11/15 09:10:03;;;;;;;1.00;1.00;;;10.70;99.90;;;;;;5104423;28;20727;-81
2022/11/15 09:12:31;;;;;;;2.07;1.87;;;10.80;99.90;;;;;;5104830;28;21187;-81
2022/11/15 09:14:58;;;;;;;2.07;1.93;;;10.80;99.90;;;;;;5088948;28;20612;-81
2022/11/15 09:17:25;;;;;;;1.40;1.30;;;10.90;99.90;;;;;;5102235;28;20619;-81
2022/11/15 09:19:52;;;;;;;1.93;1.60;;;11.00;99.90;;;;;;5088348;28;20625;-81
2022/11/15 09:22:19;;;;;;;1.53;1.43;;;11.10;99.90;;;;;;5086957;28;20631;-81
2022/11/15 09:24:46;;;;;;;1.70;1.60;;;11.10;99.90;;;;;;5105712;28;20733;-80
2022/11/15 09:27:13;;;;;;;1.93;1.70;;;11.20;99.90;;;;;;5104476;28;20723;-80
2022/11/15 09:29:41;;;;;;;1.40;1.30;;;11.20;99.90;;;;;;5107756;28;20727;-81
2022/11/15 09:32:08;;;;;;;1.83;1.33;;;11.30;99.90;;;;;;5106575;28;20716;-80
2022/11/15 09:34:35;;;;;;;5.00;2.07;;;11.30;99.90;;;;;;5107074;28;21595;-81
2022/11/15 09:37:01;;;;;;;2.33;1.73;;;11.60;99.90;;;;;;5090318;28;20604;-80
2022/11/15 09:39:28;;;;;;;3.00;2.30;;;11.80;99.20;;;;;;5097418;28;20615;-80
2022/11/15 09:42:26;;;;;;;2.43;2.23;;;11.80;99.00;;;;;;5111032;28;20611;-80
2022/11/15 09:45:02;;;;;;;5.10;1.60;;;11.80;99.20;;;;;;5106411;28;21285;-79
2022/11/15 09:47:50;;;;;;;1.53;1.43;;;11.80;99.50;;;;;;5098867;28;21466;-79
2022/11/15 09:50:28;;;;;;;1.90;1.80;;;11.80;99.50;;;;;;5095175;28;20708;-80
2022/11/15 09:52:56;;;;;;;1.80;1.70;;;11.90;99.20;;;;;;5110668;28;20667;-80
2022/11/15 09:55:35;;;;;;;1.80;1.70;;;12.00;99.90;;;;;;5093721;28;20721;-81
2022/11/15 09:58:11;;;;;;;12.67;2.20;;;12.00;99.50;;;;;;5110669;28;20722;-80
2022/11/15 10:00:45;;;;;;;1.13;1.07;;;12.20;98.70;;;;;;5105919;28;20999;-80
2022/11/15 10:03:14;;;;;;;1.53;1.43;;;12.40;98.90;;;;;;5091075;28;20613;-80
2022/11/15 10:05:44;;;;;;;2.20;1.97;;;12.40;99.60;;;;;;5109393;28;20640;-80
2022/11/15 10:08:26;;;;;;;4.43;2.37;;;12.40;98.30;;;;;;5089593;28;20624;-80
2022/11/15 10:10:57;;;;;;;1.40;1.30;;;12.50;98.30;;;;;;5096714;28;20727;-80
2022/11/15 10:13:26;;;;;;;1.70;1.53;;;12.50;98.90;;;;;;5107016;28;20630;-80
2022/11/15 10:15:58;;;;;;;2.03;1.83;;;12.50;99.20;;;;;;5106667;28;20630;-80
2022/11/15 10:18:35;;;;;;;1.27;1.17;;;12.50;99.20;;;;;;5106154;27;20650;-81
2022/11/15 10:21:16;;;;;;;2.00;1.60;;;12.50;99.10;;;;;;5099151;28;20612;-80
2022/11/15 10:23:43;;;;;;;2.50;1.80;;;12.50;99.20;;;;;;5093876;28;20726;-80
2022/11/15 10:26:15;;;;;;;1.30;1.20;;;12.50;99.50;;;;;;5101537;28;20694;-79
2022/11/15 10:28:42;;;;;;;2.20;1.60;;;12.50;99.30;;;;;;5092083;28;20723;-80
2022/11/15 10:31:24;;;;;;;1.93;1.80;;;12.50;99.50;;;;;;5098182;28;20616;-80
2022/11/15 10:33:51;;;;;;;1.70;1.60;;;12.70;99.40;;;;;;5107794;28;20683;-79
2022/11/15 10:36:24;;;;;;;1.93;1.73;;;12.70;99.20;;;;;;5106063;28;20631;-79
2022/11/15 10:38:58;;;;;;;1.63;1.53;;;12.70;99.30;;;;;;5096742;28;20624;-79
2022/11/15 10:41:46;;;;;;;2.17;1.97;;;12.70;99.60;;;;;;5096770;28;20727;-79
2022/11/15 10:44:29;;;;;;;1.47;1.37;;;12.70;99.40;;;;;;5089597;28;20714;-79
2022/11/15 10:47:25;;;;;;;0.80;0.77;;;12.70;99.20;;;;;;5093336;28;20759;-79
2022/11/15 10:50:05;;;;;;;1.40;1.07;;;12.80;98.60;;;;;;5061612;28;20712;-79
2022/11/15 10:52:35;;;;;;;3.73;1.17;;;12.80;98.10;;;;;;5093526;28;20727;-80
2022/11/15 10:55:07;;;;;;;0.80;0.80;;;12.90;98.30;;;;;;5095252;28;20673;-79
2022/11/15 10:57:37;;;;;;;3.10;0.60;;;12.80;98.50;;;;;;5095272;28;20739;-79
2022/11/15 11:00:06;;;;;;;1.10;0.63;;;12.80;98.80;;;;;;5104987;28;20619;-79
2022/11/15 11:02:37;;;;;;;2.83;1.53;;;12.80;98.40;;;;;;5097155;28;20728;-79
2022/11/15 11:05:06;;;;;;;0.70;0.70;;;12.90;98.40;;;;;;5102290;28;20660;-79
2022/11/15 11:07:36;;;;;;;0.93;0.93;;;12.70;98.80;;;;;;5088927;28;20625;-80
2022/11/15 11:10:15;;;;;;;1.57;1.00;;;12.70;99.00;;;;;;5089429;28;20987;-79
2022/11/15 11:12:41;;;;;;;1.90;1.73;;;12.80;98.30;;;;;;5088715;28;20644;-79
2022/11/15 11:15:13;;;;;;;2.70;1.40;;;12.90;98.40;;;;;;5105995;28;20621;-79
2022/11/15 11:17:58;;;;;;;1.40;1.30;;;12.90;98.40;;;;;;5093302;28;21204;-79
2022/11/15 11:20:30;;;;;;;1.40;1.30;;;12.90;99.00;;;;;;5104740;28;20718;-79
2022/11/15 11:23:05;;;;;;;2.37;1.60;;;12.90;99.00;;;;;;5107750;28;20608;-80
2022/11/15 11:25:36;;;;;;;0.70;0.70;;;12.90;99.40;;;;;;5089462;28;20644;-80
2022/11/15 11:28:19;;;;;;;1.60;1.50;;;13.00;99.30;;;;;;5106953;28;20623;-79
2022/11/15 11:30:58;;;;;;;1.47;1.37;;;12.90;99.20;;;;;;5104635;28;20631;-79
2022/11/15 11:33:32;;;;;;;1.60;1.37;;;12.90;99.30;;;;;;5090585;28;21196;-80
2022/11/15 11:36:12;;;;;;;1.30;1.20;;;13.00;98.90;;;;;;5107689;28;20693;-79
2022/11/15 11:38:50;;;;;;;1.20;1.10;;;13.10;99.40;;;;;;5107904;28;21230;-79
2022/11/15 11:41:39;;;;;;;0.90;0.70;;;13.10;98.60;;;;;;5102433;28;20632;-79
2022/11/15 11:44:18;;;;;;;1.30;1.20;;;13.20;98.80;;;;;;5107927;28;20737;-79
2022/11/15 11:46:53;;;;;;;1.27;1.17;;;13.10;99.10;;;;;;5107874;28;20762;-79
2022/11/15 11:49:26;;;;;;;1.03;0.97;;;13.10;98.90;;;;;;5105654;28;21257;-80
2022/11/15 11:51:56;;;;;;;1.10;1.00;;;13.30;98.40;;;;;;5105026;28;20624;-79
2022/11/15 11:54:28;;;;;;;0.67;0.67;;;13.30;98.80;;;;;;5093840;28;21186;-79
2022/11/15 11:56:59;;;;;;;0.77;0.77;;;13.30;98.90;;;;;;5103198;28;20704;-79
2022/11/15 11:59:42;;;;;;;0.90;0.90;;;13.40;98.70;;;;;;5102812;28;21177;-81
2022/11/15 12:02:16;;;;;;;1.47;1.37;;;13.40;98.50;;;;;;5095079;28;20674;-79
2022/11/15 12:04:49;;;;;;;2.10;1.67;;;13.40;98.70;;;;;;5107620;28;20716;-79
2022/11/15 12:07:21;;;;;;;1.17;1.03;;;13.40;98.80;;;;;;5089997;28;20763;-79
2022/11/15 12:09:54;;;;;;;1.93;1.50;;;13.60;98.90;;;;;;5089757;28;20625;-79
2022/11/15 12:12:30;;;;;;;1.20;1.10;;;13.60;99.10;;;;;;5106397;28;20972;-79
2022/11/15 12:15:03;;;;;;;1.17;1.07;;;13.50;98.70;;;;;;5093844;28;20704;-80
2022/11/15 12:17:32;;;;;;;1.00;0.70;;;13.60;98.60;;;;;;5099746;28;20676;-79
2022/11/15 12:20:03;;;;;;;0.90;0.90;;;13.60;98.50;;;;;;5100239;28;20640;-79
2022/11/15 12:22:38;;;;;;;1.03;1.00;;;13.80;98.00;;;;;;5093314;28;20723;-80
2022/11/15 12:25:14;;;;;;;1.47;1.37;;;13.60;98.50;;;;;;5106013;28;20722;-81
2022/11/15 12:27:45;;;;;;;1.10;1.00;;;13.50;98.70;;;;;;5087628;28;20781;-80
2022/11/15 12:30:16;;;;;;;1.57;1.47;;;13.50;99.00;;;;;;5088013;28;21213;-80
2022/11/15 12:32:52;;;;;;;1.23;1.10;;;13.40;98.70;;;;;;5099679;28;20659;-80
2022/11/15 12:35:28;;;;;;;2.23;1.93;;;13.40;99.00;;;;;;5103967;28;20676;-79
2022/11/15 12:37:56;;;;;;;3.43;2.00;;;13.40;99.70;;;;;;5087013;28;20723;-80
2022/11/15 12:40:35;;;;;;;2.20;2.00;;;13.50;99.50;;;;;;5106081;28;21542;-79
2022/11/15 12:43:18;;;;;;;1.40;1.30;;;13.40;99.90;;;;;;5101267;28;20624;-80
2022/11/15 12:45:46;;;;;;;2.50;2.30;;;13.30;99.90;;;;;;5092108;28;21135;-81
2022/11/15 12:48:50;;;;;;;2.40;1.90;;;13.30;99.90;;;;;;5091045;28;20652;-80
2022/11/15 12:51:20;;;;;;;3.03;1.70;;;13.20;99.90;;;;;;5093590;28;20668;-80
2022/11/15 12:53:47;;;;;;;1.70;1.60;;;13.20;99.90;;;;;;5105247;28;21215;-80
2022/11/15 12:56:24;;;;;;;2.50;2.03;;;13.10;99.90;;;;;;5107252;28;20727;-80
2022/11/15 12:58:55;;;;;;;2.30;2.00;;;13.20;99.90;;;;;;5103149;28;20629;-81
2022/11/15 13:01:58;;;;;;;2.73;1.93;;;13.10;99.90;;;;;;5107821;28;20753;-80
2022/11/15 13:04:27;;;;;;;3.03;1.90;;;13.10;99.90;;;;;;5092890;28;21486;-79
2022/11/15 13:06:57;;;;;;;6.17;2.90;;;13.20;99.90;;;;;;5091638;28;20654;-80
2022/11/15 13:09:53;;;;;;;2.00;1.90;;;13.10;99.90;;;;;;5091886;28;20725;-80
2022/11/15 13:13:06;;;;;;;4.97;2.97;;;13.00;99.90;;;;;;5092258;28;20674;-80
2022/11/15 13:15:55;;;;;;;2.30;2.10;;;13.10;99.90;;;;;;5106437;28;20627;-80
2022/11/15 13:18:35;;;;;;;2.13;2.03;;;13.10;99.90;;;;;;5110267;28;20631;-79
2022/11/15 13:22:50;;;;;;;2.30;2.07;;;13.10;99.90;;;;;;5091173;28;20666;-79
2022/11/15 13:23:55;;;;;;;2.93;2.63;;;13.10;99.90;;;;;;5103838;28;20707;-81
2022/11/15 13:26:23;;;;;;;3.30;2.77;;;13.20;99.90;;;;;;5109995;28;20667;-79